Time;durP1;ratioP1;P1;durP2;ratioP2;P2;SDS_P1;SDS_P2;PMS_P1;PMS_P2;Temp;Humidity;BMP_temperature;BMP_pressure;BME280_temperature;BME280_humidity;BME280_pressure;Samples;Min_cycle;Max_cycle;Signal;HPM_P1;HPM_P2
2023/07/01 00:01:04;;;;;;;12.20;9.70;;;;;;;18.11;73.28;96494.23;107787;1236;101360;-70
2023/07/01 00:03:49;;;;;;;13.40;10.50;;;;;;;18.08;73.40;96491.48;107613;1248;98986;-70
2023/07/01 00:06:15;;;;;;;13.00;9.80;;;;;;;18.03;73.52;96492.36;107664;1241;97368;-69
2023/07/01 00:08:42;;;;;;;11.90;9.80;;;;;;;18.00;73.52;96492.15;107847;1240;96615;-71
2023/07/01 00:11:09;;;;;;;11.50;9.30;;;;;;;17.98;73.74;96491.80;107842;1241;97814;-70
2023/07/01 00:13:35;;;;;;;16.40;9.10;;;;;;;17.94;73.81;96492.30;107770;1248;97778;-69
2023/07/01 00:16:03;;;;;;;12.30;8.70;;;;;;;17.91;73.87;96489.09;107777;1252;96546;-69
2023/07/01 00:18:30;;;;;;;10.30;8.60;;;;;;;17.90;73.85;96490.29;107541;1243;97234;-70
2023/07/01 00:20:56;;;;;;;16.80;9.30;;;;;;;17.90;73.92;96493.52;107366;1246;98082;-70
2023/07/01 00:23:24;;;;;;;10.80;8.80;;;;;;;17.88;73.95;96488.33;107392;1244;97872;-69
2023/07/01 00:25:51;;;;;;;12.10;8.40;;;;;;;17.87;74.02;96495.77;107093;1242;97046;-70
2023/07/01 00:28:17;;;;;;;14.60;8.60;;;;;;;17.85;74.17;96500.05;107595;1241;96760;-70
2023/07/01 00:30:43;;;;;;;13.00;9.00;;;;;;;17.81;74.32;96500.27;107387;1240;100738;-84
2023/07/01 00:33:10;;;;;;;10.30;8.20;;;;;;;17.76;74.31;96500.66;107327;1244;97379;-84
2023/07/01 00:35:36;;;;;;;11.90;8.50;;;;;;;17.75;74.45;96496.95;107212;1249;97781;-85
2023/07/01 01:55:22;;;;;;;11.50;10.30;;;;;;;17.54;75.15;96424.86;105330;1267;98731;-77
2023/07/01 01:57:49;;;;;;;13.20;10.70;;;;;;;17.47;75.13;96422.50;106819;1250;95861;-77
2023/07/01 02:00:16;;;;;;;15.30;10.30;;;;;;;17.38;75.28;96427.86;106399;1250;96032;-76
2023/07/01 02:02:42;;;;;;;12.60;9.30;;;;;;;17.33;75.48;96431.27;106407;1262;95920;-70
2023/07/01 02:05:09;;;;;;;11.00;8.70;;;;;;;17.28;75.49;96428.23;106395;1255;96617;-69
2023/07/01 02:07:35;;;;;;;11.00;8.30;;;;;;;17.22;75.56;96427.70;107224;1248;96210;-70
2023/07/01 02:10:03;;;;;;;12.00;8.60;;;;;;;17.14;75.61;96427.13;107205;1248;96755;-70
2023/07/01 02:12:29;;;;;;;9.20;8.30;;;;;;;17.08;75.72;96425.02;107220;1247;96257;-70
2023/07/01 02:14:56;;;;;;;8.90;8.00;;;;;;;17.05;75.83;96424.09;107227;1254;95826;-72
2023/07/01 02:17:22;;;;;;;9.40;8.00;;;;;;;17.04;75.82;96424.67;107201;1257;96739;-73
2023/07/01 05:59:00;;;;;;;13.00;9.30;;;;;;;18.34;77.32;96442.32;105359;1267;96014;-71
2023/07/01 06:01:28;;;;;;;12.10;9.70;;;;;;;18.36;77.29;96445.18;107426;1248;99725;-71
2023/07/01 06:03:54;;;;;;;12.50;8.70;;;;;;;18.41;77.05;96443.35;106529;1254;97411;-70
2023/07/01 06:06:21;;;;;;;9.30;8.40;;;;;;;18.43;76.75;96451.21;106964;1258;96020;-71
2023/07/01 06:08:48;;;;;;;10.50;8.30;;;;;;;18.44;76.83;96451.86;106883;1248;95856;-73
2023/07/01 06:11:15;;;;;;;11.00;8.00;;;;;;;18.46;76.78;96455.84;106441;1262;97077;-73
2023/07/01 07:09:51;;;;;;;12.20;8.50;;;;;;;19.28;74.18;96448.91;105342;1268;98404;-71
2023/07/01 07:12:17;;;;;;;9.60;7.60;;;;;;;19.31;73.93;96443.83;107096;1244;96150;-70
2023/07/01 07:17:34;;;;;;;8.10;7.00;;;;;;;19.36;73.60;96443.51;106652;1254;99431;-72
2023/07/01 07:20:01;;;;;;;8.80;7.60;;;;;;;19.40;73.62;96443.73;106867;1251;95957;-72
2023/07/01 07:22:27;;;;;;;8.30;7.30;;;;;;;19.40;73.51;96444.89;106940;1265;96045;-72
2023/07/01 07:24:56;;;;;;;8.20;7.40;;;;;;;19.41;73.45;96445.14;106728;1254;97003;-72
2023/07/01 07:27:22;;;;;;;7.90;6.70;;;;;;;19.42;73.49;96442.58;106723;1257;99725;-72
2023/07/01 07:29:49;;;;;;;8.20;7.10;;;;;;;19.43;73.34;96441.34;106661;1254;95836;-72
2023/07/01 07:32:16;;;;;;;8.90;7.90;;;;;;;19.45;73.29;96439.19;106452;1251;96465;-72
2023/07/01 07:34:42;;;;;;;8.40;7.50;;;;;;;19.50;73.58;96436.74;106563;1265;96145;-72
2023/07/01 07:37:09;;;;;;;10.30;7.10;;;;;;;19.56;73.58;96435.36;106641;1264;96688;-73
2023/07/01 07:39:35;;;;;;;9.80;7.80;;;;;;;19.59;73.53;96436.85;106539;1251;100214;-73
2023/07/01 07:42:02;;;;;;;10.00;7.50;;;;;;;19.63;73.51;96434.73;106544;1264;97018;-72
2023/07/01 07:44:28;;;;;;;9.80;7.70;;;;;;;19.65;73.47;96422.84;106523;1264;96020;-72
2023/07/01 07:46:55;;;;;;;8.90;8.10;;;;;;;19.67;73.35;96428.23;106733;1251;96133;-80
2023/07/01 07:49:21;;;;;;;10.40;8.80;;;;;;;19.71;73.41;96428.11;106915;1261;101686;-78
2023/07/01 07:51:48;;;;;;;12.40;8.00;;;;;;;19.76;73.46;96428.39;107387;1249;96138;-79
2023/07/01 07:54:14;;;;;;;8.50;7.40;;;;;;;19.79;73.48;96427.25;107026;1246;95815;-81
2023/07/01 07:56:40;;;;;;;9.30;8.00;;;;;;;19.84;73.31;96426.05;107064;1249;95811;-78
2023/07/01 07:59:07;;;;;;;10.20;7.70;;;;;;;19.84;73.28;96426.05;106923;1246;99445;-80
2023/07/01 08:01:33;;;;;;;9.10;8.20;;;;;;;19.84;73.35;96433.43;106602;1252;97195;-78
2023/07/01 08:04:00;;;;;;;12.50;8.40;;;;;;;19.85;73.25;96434.96;107829;1242;96093;-79
2023/07/01 08:06:26;;;;;;;11.30;7.30;;;;;;;19.84;72.93;96435.67;107945;1241;96866;-80
2023/07/01 08:08:52;;;;;;;8.80;7.90;;;;;;;19.80;73.08;96436.94;107907;1235;100143;-83
2023/07/01 08:34:35;;;;;;;8.60;7.70;;;;;;;20.16;72.34;96442.58;105479;1267;95928;-79
2023/07/01 08:37:02;;;;;;;8.80;7.40;;;;;;;20.12;72.35;96443.68;106839;1249;95820;-79
2023/07/01 08:39:28;;;;;;;9.70;8.40;;;;;;;20.08;72.44;96443.73;106864;1244;97064;-79
2023/07/01 08:42:02;;;;;;;9.50;8.30;;;;;;;20.03;72.20;96449.95;106813;1246;95883;-79
2023/07/01 08:44:29;;;;;;;11.70;8.70;;;;;;;20.01;72.25;96453.27;106827;1250;97310;-80
2023/07/01 08:46:57;;;;;;;12.90;9.00;;;;;;;20.00;72.16;96450.04;106501;1255;97184;-86
2023/07/01 08:49:24;;;;;;;12.00;8.70;;;;;;;19.99;72.29;96447.59;106516;1254;95808;-86
2023/07/01 08:52:06;;;;;;;12.30;9.40;;;;;;;19.96;72.47;96448.06;107168;1247;95836;-85
2023/07/01 08:54:36;;;;;;;11.70;8.80;;;;;;;19.94;72.55;96445.34;107015;1248;96014;-85
2023/07/01 08:57:03;;;;;;;13.60;9.50;;;;;;;19.96;72.51;96443.40;106284;1256;99446;-91
2023/07/01 08:59:29;;;;;;;13.70;10.50;;;;;;;19.95;72.43;96439.14;106924;1246;96939;-87
2023/07/01 09:01:59;;;;;;;13.60;10.60;;;;;;;19.96;72.53;96438.26;106901;1248;96737;-79
2023/07/01 09:04:27;;;;;;;15.80;10.00;;;;;;;19.99;72.44;96441.35;106924;1248;96006;-79
2023/07/01 09:06:54;;;;;;;14.30;10.30;;;;;;;20.02;72.61;96445.09;106684;1247;95950;-78
2023/07/01 09:09:20;;;;;;;12.50;9.80;;;;;;;20.06;72.78;96444.57;106861;1248;96318;-78
2023/07/01 09:11:47;;;;;;;12.90;10.20;;;;;;;20.11;72.58;96445.18;106582;1262;95937;-78
2023/07/01 09:14:14;;;;;;;11.70;10.10;;;;;;;20.14;72.70;96440.11;106625;1247;95800;-78
2023/07/01 09:16:40;;;;;;;14.10;10.40;;;;;;;20.19;72.36;96439.14;106354;1254;96973;-85
2023/07/01 09:19:10;;;;;;;12.70;10.90;;;;;;;20.23;72.37;96437.23;106700;1258;95842;-86
2023/07/01 09:21:38;;;;;;;15.60;10.00;;;;;;;20.27;72.47;96434.77;106569;1254;101453;-85
2023/07/01 09:24:06;;;;;;;13.90;10.60;;;;;;;20.30;72.40;96431.25;106533;1252;95938;-86
2023/07/01 09:26:33;;;;;;;12.40;10.90;;;;;;;20.31;72.30;96432.33;106519;1252;96981;-86
2023/07/01 09:29:08;;;;;;;12.60;10.10;;;;;;;20.29;72.44;96430.66;106549;1256;96018;-86
2023/07/01 09:31:46;;;;;;;13.00;10.60;;;;;;;20.29;72.32;96424.63;109671;1248;100724;-79
2023/07/01 09:34:13;;;;;;;12.50;10.00;;;;;;;20.35;72.71;96426.44;110025;1249;101350;-79
2023/07/01 09:36:39;;;;;;;16.00;10.70;;;;;;;20.40;72.60;96421.98;106896;1250;96518;-79
2023/07/01 09:39:06;;;;;;;13.70;9.70;;;;;;;20.42;72.43;96420.51;106900;1251;96298;-80
2023/07/01 09:41:32;;;;;;;14.10;10.20;;;;;;;20.46;72.36;96420.34;107134;1245;96525;-79
2023/07/01 09:43:59;;;;;;;11.20;9.20;;;;;;;20.57;72.54;96418.59;107191;1254;101484;-79
2023/07/01 09:46:43;;;;;;;12.30;9.50;;;;;;;20.69;72.51;96417.08;107403;1239;96005;-82
2023/07/01 09:49:10;;;;;;;11.40;8.50;;;;;;;20.83;72.31;96411.30;107427;1240;95841;-80
2023/07/01 09:51:50;;;;;;;10.80;8.80;;;;;;;20.94;71.76;96404.90;107580;1241;95970;-78
2023/07/01 09:54:27;;;;;;;10.40;8.80;;;;;;;21.05;71.42;96406.35;107350;1251;99792;-77
2023/07/01 09:56:55;;;;;;;9.10;8.20;;;;;;;21.14;70.93;96404.91;106989;1247;100199;-78
2023/07/01 09:59:23;;;;;;;12.70;8.10;;;;;;;21.24;71.01;96405.03;107439;1242;98839;-79
2023/07/01 10:01:50;;;;;;;10.50;8.50;;;;;;;21.60;71.32;96405.36;106911;1251;97327;-72
2023/07/01 10:04:21;;;;;;;9.30;7.90;;;;;;;21.92;70.82;96400.59;106571;1253;95910;-71
2023/07/01 10:06:48;;;;;;;10.90;7.90;;;;;;;22.11;70.25;96398.58;106314;1256;101117;-74
2023/07/01 10:09:14;;;;;;;10.00;8.50;;;;;;;22.25;69.66;96394.48;106733;1252;96024;-73
2023/07/01 10:11:41;;;;;;;8.50;7.70;;;;;;;22.44;69.10;96383.73;106247;1256;96032;-72
2023/07/01 10:14:09;;;;;;;10.40;7.00;;;;;;;22.66;68.35;96383.54;106509;1254;95967;-71
2023/07/01 10:16:46;;;;;;;10.10;7.00;;;;;;;22.84;67.64;96391.03;106166;1260;99817;-74
2023/07/01 10:19:32;;;;;;;11.20;9.40;;;;;;;22.95;67.45;96388.77;106378;1263;101572;-74
2023/07/01 10:22:20;;;;;;;9.20;7.00;;;;;;;23.02;66.94;96386.48;106343;1251;97627;-74
2023/07/01 10:24:54;;;;;;;9.10;6.50;;;;;;;23.08;66.64;96378.41;106385;1251;96043;-74
2023/07/01 10:27:40;;;;;;;9.80;8.10;;;;;;;23.14;66.21;96375.51;106215;1251;96783;-73
2023/07/01 10:30:08;;;;;;;8.70;7.50;;;;;;;23.21;66.14;96372.66;106211;1254;98557;-74
2023/07/01 10:32:35;;;;;;;9.50;6.70;;;;;;;23.26;65.69;96369.84;106364;1257;100335;-72
2023/07/01 10:35:05;;;;;;;9.40;7.00;;;;;;;23.23;65.26;96372.77;106727;1260;96179;-75
2023/07/01 10:37:35;;;;;;;9.10;7.70;;;;;;;23.21;65.41;96367.75;107114;1244;96042;-73
2023/07/01 10:40:07;;;;;;;13.30;7.60;;;;;;;23.25;65.33;96364.94;107064;1250;97122;-73
2023/07/01 10:42:36;;;;;;;7.40;6.70;;;;;;;23.33;64.76;96365.31;106896;1241;101043;-74
2023/07/01 10:45:11;;;;;;;7.90;7.00;;;;;;;23.35;64.36;96365.65;107419;1245;101417;-73
2023/07/01 10:47:50;;;;;;;8.70;7.80;;;;;;;23.31;64.38;96362.94;107347;1248;99008;-74
2023/07/01 10:50:18;;;;;;;11.40;8.20;;;;;;;23.37;64.49;96359.73;107582;1239;96159;-75
2023/07/01 10:52:56;;;;;;;8.40;6.70;;;;;;;23.49;64.65;96354.83;107743;1241;96495;-76
2023/07/01 10:55:35;;;;;;;9.50;7.20;;;;;;;23.62;64.31;96344.71;107656;1242;99863;-73
2023/07/01 10:58:15;;;;;;;8.40;7.10;;;;;;;23.75;64.26;96343.31;107487;1242;100066;-74
2023/07/01 11:00:42;;;;;;;9.70;6.80;;;;;;;23.90;63.93;96340.38;107609;1241;99198;-73
2023/07/01 11:03:33;;;;;;;10.70;6.60;;;;;;;24.11;63.93;96338.91;107495;1242;96001;-74
2023/07/01 11:06:04;;;;;;;7.90;7.00;;;;;;;24.26;63.23;96335.14;107585;1240;97066;-74
2023/07/01 11:08:33;;;;;;;7.80;6.80;;;;;;;24.44;63.72;96331.15;107547;1242;99808;-74
2023/07/01 11:10:59;;;;;;;8.20;7.40;;;;;;;24.56;63.10;96327.66;107555;1242;99889;-74
2023/07/01 11:13:26;;;;;;;8.70;7.10;;;;;;;24.59;63.26;96322.14;107748;1241;97148;-73
2023/07/01 11:16:02;;;;;;;12.10;7.00;;;;;;;24.69;63.24;96316.95;108097;1245;96245;-73
2023/07/01 11:18:47;;;;;;;9.60;6.70;;;;;;;24.84;63.01;96317.05;107973;1240;95891;-73
2023/07/01 11:21:18;;;;;;;7.70;6.30;;;;;;;24.93;62.17;96315.71;107564;1242;99419;-72
2023/07/01 11:24:03;;;;;;;9.60;6.80;;;;;;;24.95;61.97;96311.40;108059;1242;99091;-72
2023/07/01 11:26:33;;;;;;;7.70;6.30;;;;;;;24.98;61.27;96311.45;107663;1239;97771;-73
2023/07/01 11:29:01;;;;;;;6.90;6.30;;;;;;;25.01;60.76;96310.79;108016;1249;95904;-72
2023/07/01 11:31:32;;;;;;;7.80;7.00;;;;;;;25.00;60.65;96311.08;107577;1242;96814;-74
2023/07/01 11:34:00;;;;;;;9.70;6.20;;;;;;;24.98;60.77;96313.20;108099;1237;100706;-72
2023/07/01 11:36:44;;;;;;;8.40;7.20;;;;;;;24.92;60.70;96306.51;108091;1249;96770;-72
2023/07/01 11:39:13;;;;;;;7.50;6.60;;;;;;;24.75;60.76;96306.41;108039;1246;99930;-72
2023/07/01 11:41:42;;;;;;;7.20;6.50;;;;;;;24.59;61.29;96305.20;108061;1234;95834;-73
2023/07/01 11:44:11;;;;;;;9.80;6.90;;;;;;;24.53;61.30;96303.71;108039;1248;96132;-71
2023/07/01 11:46:40;;;;;;;8.40;7.10;;;;;;;24.50;61.12;96302.11;107729;1242;99583;-80
2023/07/01 11:49:16;;;;;;;9.70;7.80;;;;;;;24.49;61.01;96297.58;107889;1234;100242;-81
2023/07/01 11:51:44;;;;;;;11.80;7.50;;;;;;;24.47;61.02;96296.91;108059;1238;98880;-82
2023/07/01 11:54:10;;;;;;;10.10;8.20;;;;;;;24.46;61.08;96303.21;108133;1239;95823;-79
2023/07/01 11:56:37;;;;;;;9.00;7.80;;;;;;;24.47;60.99;96307.63;107959;1241;95833;-80
2023/07/01 11:59:03;;;;;;;10.20;7.10;;;;;;;24.41;61.53;96311.48;107626;1244;96287;-80
2023/07/01 12:01:30;;;;;;;10.30;6.90;;;;;;;24.32;61.79;96315.42;107765;1243;96029;-81
2023/07/01 12:03:56;;;;;;;9.50;6.40;;;;;;;24.22;61.65;96311.33;107561;1245;95937;-82
2023/07/01 12:06:25;;;;;;;7.50;6.60;;;;;;;24.13;61.35;96311.58;107627;1239;97144;-79
2023/07/01 12:08:52;;;;;;;8.00;7.00;;;;;;;24.08;61.41;96312.54;107233;1255;100117;-79
2023/07/01 12:11:20;;;;;;;7.30;6.30;;;;;;;24.03;61.42;96308.13;107591;1244;96829;-79
2023/07/01 12:13:47;;;;;;;8.30;6.80;;;;;;;23.96;61.33;96306.30;107174;1248;99015;-80
2023/07/01 12:16:13;;;;;;;7.60;6.80;;;;;;;23.88;61.54;96303.13;107512;1246;96255;-79
2023/07/01 12:18:40;;;;;;;9.60;7.40;;;;;;;23.83;61.92;96304.10;107561;1239;97097;-81
2023/07/01 12:21:06;;;;;;;9.10;7.20;;;;;;;23.80;62.43;96298.27;107508;1244;96769;-80
2023/07/01 12:23:43;;;;;;;8.90;7.30;;;;;;;23.81;62.79;96298.45;107374;1241;99861;-79
2023/07/01 12:26:13;;;;;;;8.40;7.60;;;;;;;23.77;62.83;96304.74;107316;1245;96715;-79
2023/07/01 12:28:40;;;;;;;8.90;8.00;;;;;;;23.70;63.26;96307.70;107551;1245;95992;-80
2023/07/01 12:31:07;;;;;;;9.10;7.80;;;;;;;23.57;63.52;96308.44;108067;1239;95838;-72
2023/07/01 12:33:34;;;;;;;13.80;8.00;;;;;;;23.46;63.79;96305.36;107736;1241;96290;-73
2023/07/01 12:36:02;;;;;;;13.60;8.10;;;;;;;23.38;64.33;96305.83;108146;1239;97772;-73
2023/07/01 12:38:29;;;;;;;11.10;8.80;;;;;;;23.30;64.54;96311.71;107736;1244;96603;-73
2023/07/01 12:40:55;;;;;;;12.60;10.20;;;;;;;23.25;64.80;96309.84;108139;1234;97116;-72
2023/07/01 12:43:27;;;;;;;11.30;10.10;;;;;;;23.24;64.98;96314.48;108617;1238;97769;-73
2023/07/01 12:45:56;;;;;;;13.70;11.90;;;;;;;23.21;65.14;96313.35;109183;1237;100775;-87
2023/07/01 12:48:22;;;;;;;16.50;13.70;;;;;;;23.17;65.41;96316.13;108180;1237;99889;-85
2023/07/01 12:50:49;;;;;;;15.30;12.00;;;;;;;23.14;65.85;96313.23;107989;1249;97789;-86
2023/07/01 12:53:17;;;;;;;14.40;12.60;;;;;;;23.13;66.32;96311.67;107886;1237;96733;-86
2023/07/01 12:55:49;;;;;;;14.70;11.00;;;;;;;23.11;66.37;96310.46;108215;1234;97882;-82
2023/07/01 12:58:17;;;;;;;13.40;9.90;;;;;;;23.09;66.67;96305.27;108092;1246;100181;-82
2023/07/01 13:00:46;;;;;;;10.40;9.20;;;;;;;23.09;66.86;96302.58;107873;1237;98638;-79
2023/07/01 13:03:13;;;;;;;12.20;9.90;;;;;;;23.09;67.00;96301.13;107828;1234;96556;-80
2023/07/01 13:05:40;;;;;;;12.10;9.90;;;;;;;23.12;67.35;96292.08;107154;1246;97539;-84
2023/07/01 13:08:06;;;;;;;14.70;9.40;;;;;;;23.14;67.71;96286.81;107340;1252;97793;-79
2023/07/01 13:10:38;;;;;;;23.30;20.90;;;;;;;23.14;67.90;96285.41;107443;1244;96750;-79
2023/07/01 13:13:05;;;;;;;15.20;13.40;;;;;;;23.18;68.19;96286.38;108430;1238;99038;-81
2023/07/01 13:15:32;;;;;;;13.60;11.00;;;;;;;23.23;68.25;96288.20;109178;1239;97749;-83
2023/07/01 13:18:00;;;;;;;11.60;9.70;;;;;;;23.33;68.01;96289.95;107632;1239;96564;-83
2023/07/01 13:20:26;;;;;;;18.90;16.90;;;;;;;23.43;68.37;96285.21;107558;1252;96612;-82
2023/07/01 13:22:55;;;;;;;13.80;12.50;;;;;;;23.52;68.24;96279.13;107136;1238;96741;-83
2023/07/01 13:25:23;;;;;;;13.50;11.30;;;;;;;23.64;68.77;96276.10;107392;1239;97563;-83
2023/07/01 13:27:51;;;;;;;11.90;10.60;;;;;;;23.84;69.40;96280.98;107410;1252;96632;-83
2023/07/01 13:30:39;;;;;;;10.70;9.60;;;;;;;23.96;68.55;96280.77;107476;1242;97064;-83
2023/07/01 13:33:05;;;;;;;9.50;8.60;;;;;;;23.92;67.88;96278.04;106924;1246;101887;-79
2023/07/01 13:35:33;;;;;;;9.70;8.60;;;;;;;23.85;67.70;96272.65;107433;1242;97653;-79
2023/07/01 13:38:09;;;;;;;10.60;9.00;;;;;;;23.76;67.42;96268.70;107717;1246;96538;-79
2023/07/01 13:40:39;;;;;;;11.50;8.90;;;;;;;23.68;67.49;96266.15;107537;1242;97466;-79
2023/07/01 13:43:12;;;;;;;10.10;9.10;;;;;;;23.65;67.33;96269.64;107546;1242;97060;-79
2023/07/01 13:45:38;;;;;;;15.20;9.40;;;;;;;23.65;67.29;96269.86;107515;1242;101397;-79
2023/07/01 13:48:05;;;;;;;11.60;9.60;;;;;;;23.66;67.51;96268.98;107976;1238;96537;-79
2023/07/01 13:50:31;;;;;;;10.80;9.70;;;;;;;23.65;67.39;96265.39;107945;1246;97064;-80
2023/07/01 13:53:00;;;;;;;10.80;9.60;;;;;;;23.64;67.87;96268.56;107998;1243;97849;-79
2023/07/01 13:55:28;;;;;;;12.60;9.60;;;;;;;23.50;68.32;96266.05;107951;1240;101122;-79
2023/07/01 13:57:54;;;;;;;11.00;9.80;;;;;;;23.42;68.46;96269.75;107537;1242;100385;-79
2023/07/01 14:00:30;;;;;;;12.20;9.90;;;;;;;23.41;68.14;96268.59;107934;1239;96557;-79
2023/07/01 14:02:56;;;;;;;10.40;9.50;;;;;;;23.41;68.21;96269.52;107898;1234;97085;-80
2023/07/01 14:05:23;;;;;;;12.90;10.10;;;;;;;23.38;68.46;96269.55;107883;1239;97450;-80
2023/07/01 14:08:00;;;;;;;10.30;9.30;;;;;;;23.30;68.57;96265.91;107971;1249;96558;-79
2023/07/01 14:10:29;;;;;;;13.70;10.40;;;;;;;23.26;68.49;96263.02;107493;1240;100545;-82
2023/07/01 14:12:57;;;;;;;13.70;9.70;;;;;;;23.21;68.52;96263.86;107594;1244;100605;-80
2023/07/01 14:15:35;;;;;;;13.90;9.70;;;;;;;23.15;68.72;96267.06;107358;1239;97076;-82
2023/07/01 14:18:04;;;;;;;11.70;10.20;;;;;;;23.09;68.73;96266.36;107634;1245;96715;-81
2023/07/01 14:20:30;;;;;;;10.90;9.80;;;;;;;23.00;68.69;96268.89;107568;1252;101209;-85
2023/07/01 14:22:58;;;;;;;12.90;11.60;;;;;;;22.91;68.80;96265.15;107425;1242;96759;-82
2023/07/01 14:25:37;;;;;;;13.30;12.00;;;;;;;22.80;68.92;96256.45;107656;1239;98000;-84
2023/07/01 14:28:09;;;;;;;14.00;12.10;;;;;;;22.64;69.37;96251.19;107299;1251;97683;-84
2023/07/01 14:30:53;;;;;;;15.50;13.90;;;;;;;22.46;69.99;96249.96;107481;1248;97805;-83
2023/07/01 14:33:19;;;;;;;20.10;18.00;;;;;;;22.36;70.64;96249.29;107650;1243;102339;-83
2023/07/01 14:35:49;;;;;;;15.90;14.20;;;;;;;22.24;70.90;96248.60;107742;1239;97750;-83
2023/07/01 14:38:16;;;;;;;13.10;11.60;;;;;;;22.13;71.41;96252.79;107742;1244;100227;-85
2023/07/01 14:40:43;;;;;;;12.50;10.60;;;;;;;22.11;71.78;96256.11;107505;1245;96791;-83
2023/07/01 14:43:11;;;;;;;11.40;10.30;;;;;;;22.11;71.86;96259.85;108098;1239;96657;-82
2023/07/01 14:45:41;;;;;;;11.80;10.60;;;;;;;22.09;71.95;96263.33;107593;1245;97363;-83
2023/07/01 14:48:08;;;;;;;11.70;10.50;;;;;;;22.11;72.01;96269.87;108206;1234;101246;-83
2023/07/01 14:50:35;;;;;;;13.70;11.90;;;;;;;22.11;72.14;96272.88;108180;1242;96973;-84
2023/07/01 14:53:03;;;;;;;12.80;11.50;;;;;;;22.06;72.31;96273.19;108217;1246;97472;-84
2023/07/01 14:55:29;;;;;;;12.40;11.20;;;;;;;22.04;72.48;96275.94;107621;1245;96749;-85
2023/07/01 14:57:56;;;;;;;12.90;11.50;;;;;;;21.93;72.74;96278.63;108090;1234;96474;-86
2023/07/01 15:00:22;;;;;;;13.70;12.40;;;;;;;21.81;73.02;96273.14;108222;1235;96633;-84
2023/07/01 15:02:49;;;;;;;12.90;11.40;;;;;;;21.76;73.23;96267.31;107915;1242;97188;-73
2023/07/01 15:05:16;;;;;;;13.20;11.50;;;;;;;21.75;73.53;96265.30;108366;1238;97661;-73
2023/07/01 15:07:42;;;;;;;12.70;11.40;;;;;;;21.75;73.60;96256.35;108393;1234;96557;-73
2023/07/01 15:10:09;;;;;;;15.00;12.90;;;;;;;21.72;73.72;96259.47;108303;1240;97117;-74
2023/07/01 15:12:36;;;;;;;15.30;13.70;;;;;;;21.68;73.82;96255.27;108122;1236;97085;-73
2023/07/01 15:15:04;;;;;;;14.80;13.40;;;;;;;21.55;73.96;96251.98;108269;1237;97451;-73
2023/07/01 15:17:30;;;;;;;15.30;13.70;;;;;;;21.46;74.34;96250.28;108376;1234;101652;-73
2023/07/01 15:19:57;;;;;;;14.60;13.20;;;;;;;21.41;74.62;96250.98;108206;1237;97080;-72
2023/07/01 15:22:23;;;;;;;15.30;13.60;;;;;;;21.39;74.88;96246.48;108185;1237;96616;-73
2023/07/01 15:24:50;;;;;;;14.90;13.40;;;;;;;21.40;74.97;96251.27;108111;1246;97062;-73
2023/07/01 15:27:17;;;;;;;14.50;13.00;;;;;;;21.35;75.06;96245.65;107809;1242;101356;-72
2023/07/01 15:29:43;;;;;;;15.30;13.60;;;;;;;21.30;75.52;96246.95;108118;1236;96582;-74
2023/07/01 15:32:09;;;;;;;17.40;13.30;;;;;;;21.30;75.88;96241.14;109010;1237;96526;-72
2023/07/01 15:34:37;;;;;;;14.90;12.90;;;;;;;21.35;75.94;96243.88;108058;1239;97113;-72
2023/07/01 15:37:03;;;;;;;16.40;14.70;;;;;;;21.40;75.89;96247.98;108144;1244;97618;-72
2023/07/01 15:39:30;;;;;;;15.10;13.60;;;;;;;21.46;75.89;96250.70;108385;1237;101857;-72
2023/07/01 15:41:57;;;;;;;15.10;13.70;;;;;;;21.52;75.94;96250.02;107723;1240;97484;-71
2023/07/01 15:44:23;;;;;;;15.60;14.00;;;;;;;21.53;76.47;96245.81;108306;1237;97667;-72
2023/07/01 15:46:49;;;;;;;16.70;13.30;;;;;;;21.53;76.75;96245.43;108320;1239;96648;-71
2023/07/01 15:49:16;;;;;;;16.20;13.40;;;;;;;21.59;76.68;96252.45;109542;1237;96628;-71
2023/07/01 16:24:40;;;;;;;14.30;12.90;;;;;;;22.67;74.40;96230.86;104931;1261;642534;-84
2023/07/01 16:27:07;;;;;;;14.20;12.80;;;;;;;22.61;74.32;96232.17;107409;1237;147202;-82
2023/07/01 16:29:34;;;;;;;14.40;13.10;;;;;;;22.52;74.24;96237.15;107180;1246;97094;-84
2023/07/01 16:32:00;;;;;;;15.40;13.40;;;;;;;22.41;74.49;96241.00;107320;1240;95913;-84
2023/07/01 16:34:26;;;;;;;15.10;13.50;;;;;;;22.29;74.68;96238.64;107435;1244;95839;-83
2023/07/01 16:36:53;;;;;;;14.30;13.00;;;;;;;22.18;74.72;96238.48;107268;1252;96010;-85
2023/07/01 16:39:20;;;;;;;15.40;13.40;;;;;;;22.10;74.85;96238.41;107232;1244;95852;-85
2023/07/01 16:41:46;;;;;;;18.90;14.70;;;;;;;21.99;75.01;96243.02;107437;1240;95802;-85
2023/07/01 16:44:13;;;;;;;325.70;266.60;;;;;;;21.88;75.24;96243.02;107332;1240;96203;-83
2023/07/01 16:46:42;;;;;;;17.50;14.90;;;;;;;21.76;75.53;96234.32;106908;1242;96798;-82
2023/07/01 16:49:11;;;;;;;18.10;15.40;;;;;;;21.65;75.76;96237.20;107106;1246;96297;-77
2023/07/01 16:51:38;;;;;;;22.70;16.00;;;;;;;21.58;75.90;96235.56;107112;1241;96048;-83
2023/07/01 16:54:22;;;;;;;18.10;16.10;;;;;;;21.52;76.15;96237.82;107148;1248;99785;-82
2023/07/01 16:56:53;;;;;;;18.00;16.10;;;;;;;21.49;76.32;96237.68;107016;1247;101268;-84
2023/07/01 16:59:28;;;;;;;17.90;15.90;;;;;;;21.47;76.51;96236.09;106931;1252;98712;-84
2023/07/01 17:01:56;;;;;;;18.90;16.90;;;;;;;21.40;76.59;96230.09;106951;1247;96252;-86
2023/07/01 17:04:27;;;;;;;18.70;16.80;;;;;;;21.34;76.56;96230.85;107331;1243;95884;-85
2023/07/01 17:06:54;;;;;;;16.30;14.50;;;;;;;21.27;76.80;96239.40;107502;1244;100936;-83
2023/07/01 17:09:45;;;;;;;18.20;15.80;;;;;;;21.20;76.91;96247.80;107218;1247;97126;-84
2023/07/01 17:12:35;;;;;;;17.00;15.40;;;;;;;21.14;77.14;96249.73;107369;1245;99124;-85
2023/07/01 17:15:07;;;;;;;17.50;15.80;;;;;;;21.10;77.27;96249.11;106965;1241;96041;-83
2023/07/01 17:17:33;;;;;;;17.50;15.80;;;;;;;21.09;77.19;96247.10;107114;1235;97116;-71
2023/07/01 17:20:01;;;;;;;17.90;16.10;;;;;;;21.07;77.39;96245.91;107877;1241;95797;-71
2023/07/01 17:22:29;;;;;;;18.00;16.30;;;;;;;21.03;77.55;96243.59;108039;1237;96190;-73
2023/07/01 17:24:56;;;;;;;18.80;16.70;;;;;;;20.97;77.71;96247.34;107617;1244;95986;-70
2023/07/01 17:27:23;;;;;;;18.90;16.80;;;;;;;20.92;77.82;96246.79;107736;1239;96485;-71
2023/07/01 17:29:50;;;;;;;17.80;16.00;;;;;;;20.86;78.00;96242.25;107802;1243;96146;-72
2023/07/01 17:32:19;;;;;;;24.40;17.40;;;;;;;20.75;78.05;96240.92;107415;1251;95890;-71
2023/07/01 17:34:48;;;;;;;21.60;17.10;;;;;;;20.68;78.32;96241.23;107089;1246;96133;-72
2023/07/01 17:37:15;;;;;;;22.70;20.40;;;;;;;20.59;78.64;96244.52;107429;1245;98992;-74
2023/07/01 17:54:42;;;;;;;18.30;15.80;;;;;;;20.66;79.02;96252.23;98239;1299;95913;-82
2023/07/01 17:57:11;;;;;;;21.00;16.40;;;;;;;20.54;79.27;96258.04;103754;1271;95850;-85
2023/07/01 17:59:44;;;;;;;16.10;13.60;;;;;;;20.48;79.17;96258.71;104428;1276;95823;-84
2023/07/01 18:03:18;;;;;;;16.50;13.50;;;;;;;20.45;79.09;96250.58;102495;1289;635960;-82
2023/07/01 18:08:57;;;;;;;31.20;21.50;;;;;;;20.32;79.41;96237.77;103443;1269;94470;-83
2023/07/01 18:13:22;;;;;;;22.60;18.40;;;;;;;20.19;79.77;96235.74;102026;1285;636129;-83
2023/07/01 18:16:36;;;;;;;26.80;19.10;;;;;;;20.23;79.94;96243.23;104472;1255;97091;-84
2023/07/01 18:32:32;;;;;;;19.40;16.80;;;;;;;20.64;79.75;96238.86;104960;1273;638649;-82
2023/07/01 18:38:40;;;;;;;19.90;17.60;;;;;;;20.52;79.89;96231.55;106526;1243;102054;-82
2023/07/01 18:41:07;;;;;;;22.40;17.80;;;;;;;20.48;80.09;96241.98;107106;1249;97107;-83
2023/07/01 18:43:38;;;;;;;29.30;23.40;;;;;;;20.39;80.15;96241.36;108177;1232;95836;-82
2023/07/01 18:46:05;;;;;;;23.70;20.10;;;;;;;20.29;80.26;96238.23;107777;1240;95982;-82
2023/07/01 18:48:32;;;;;;;22.10;18.40;;;;;;;20.23;80.28;96236.87;107863;1246;100251;-82
2023/07/01 18:51:01;;;;;;;19.30;17.20;;;;;;;20.20;80.42;96243.61;108209;1244;95852;-82
2023/07/01 18:53:50;;;;;;;18.50;16.50;;;;;;;20.10;80.57;96245.31;107536;1249;98886;-84